Time;durP1;ratioP1;P1;durP2;ratioP2;P2;SDS_P1;SDS_P2;PMS_P1;PMS_P2;Temp;Humidity;BMP_temperature;BMP_pressure;BME280_temperature;BME280_humidity;BME280_pressure;Samples;Min_cycle;Max_cycle;Signal;HPM_P1;HPM_P2
2023/07/21 00:00:22;;;;;;;5.05;3.30;;;;;;;;;;4988511;28;20046;-66
2023/07/21 00:02:48;;;;;;;6.28;3.35;;;;;;;;;;4988587;28;20046;-66
2023/07/21 00:05:16;;;;;;;4.90;3.08;;;;;;;;;;4988950;28;20033;-66
2023/07/21 00:07:41;;;;;;;5.72;3.20;;;;;;;;;;4988456;28;20038;-66
2023/07/21 00:10:07;;;;;;;5.18;3.15;;;;;;;;;;4987925;28;20592;-66
2023/07/21 00:12:36;;;;;;;4.47;3.35;;;;;;;;;;4970926;28;20046;-66
2023/07/21 00:15:02;;;;;;;7.18;3.42;;;;;;;;;;4970853;28;20149;-66
2023/07/21 00:17:30;;;;;;;8.40;3.30;;;;;;;;;;4972481;28;20594;-66
2023/07/21 00:20:04;;;;;;;6.03;3.35;;;;;;;;;;4977461;28;20045;-66
2023/07/21 00:22:31;;;;;;;4.30;2.75;;;;;;;;;;4992020;28;20117;-66
2023/07/21 00:24:57;;;;;;;6.45;3.70;;;;;;;;;;5008509;28;20091;-66
2023/07/21 00:27:22;;;;;;;6.50;3.38;;;;;;;;;;4989749;28;20041;-66
2023/07/21 00:29:49;;;;;;;7.53;3.55;;;;;;;;;;4987843;28;20027;-66
2023/07/21 00:32:18;;;;;;;8.27;3.70;;;;;;;;;;4988167;28;20710;-65
2023/07/21 00:34:43;;;;;;;4.85;2.88;;;;;;;;;;4987608;28;20062;-66
2023/07/21 00:37:08;;;;;;;6.60;3.53;;;;;;;;;;4986486;28;21067;-65
2023/07/21 00:39:33;;;;;;;7.57;3.47;;;;;;;;;;4969168;28;20431;-65
2023/07/21 00:41:58;;;;;;;5.03;3.30;;;;;;;;;;4987223;28;20427;-66
2023/07/21 00:44:24;;;;;;;6.03;3.00;;;;;;;;;;4988229;28;20284;-66
2023/07/21 00:46:49;;;;;;;7.00;3.50;;;;;;;;;;4984910;28;20286;-66
2023/07/21 00:49:14;;;;;;;6.25;3.20;;;;;;;;;;4987430;28;20046;-66
2023/07/21 00:51:39;;;;;;;5.20;3.27;;;;;;;;;;4969508;28;20100;-66
2023/07/21 00:54:05;;;;;;;4.70;3.27;;;;;;;;;;4970149;28;20034;-66
2023/07/21 00:56:30;;;;;;;5.87;2.87;;;;;;;;;;4986873;28;20152;-66
2023/07/21 00:58:55;;;;;;;5.07;3.27;;;;;;;;;;4969985;28;20049;-66
2023/07/21 01:01:22;;;;;;;5.93;2.93;;;;;;;;;;4986856;28;20824;-66
2023/07/21 01:03:48;;;;;;;9.63;3.45;;;;;;;;;;4987368;28;20281;-65
2023/07/21 01:06:14;;;;;;;6.50;3.47;;;;;;;;;;4987758;28;20518;-66
2023/07/21 01:08:39;;;;;;;7.50;3.27;;;;;;;;;;4987736;28;20033;-66
2023/07/21 01:11:06;;;;;;;6.07;3.53;;;;;;;;;;4989076;28;20380;-66
2023/07/21 01:13:31;;;;;;;5.20;3.35;;;;;;;;;;4987220;28;20038;-66
2023/07/21 01:15:57;;;;;;;5.05;3.13;;;;;;;;;;4986926;28;20038;-66
2023/07/21 01:18:22;;;;;;;8.05;3.92;;;;;;;;;;4969538;28;20062;-66
2023/07/21 01:20:47;;;;;;;5.33;3.30;;;;;;;;;;4973554;28;20092;-66
2023/07/21 01:23:13;;;;;;;7.13;3.60;;;;;;;;;;4986918;28;20383;-65
2023/07/21 01:25:39;;;;;;;6.60;3.27;;;;;;;;;;4986035;28;20042;-66
2023/07/21 01:28:05;;;;;;;5.07;3.30;;;;;;;;;;4969359;28;20034;-66
2023/07/21 01:30:30;;;;;;;6.10;3.28;;;;;;;;;;4987544;28;20199;-64
2023/07/21 01:32:55;;;;;;;5.25;3.40;;;;;;;;;;4987505;28;20054;-65
2023/07/21 01:35:21;;;;;;;9.40;3.50;;;;;;;;;;4987631;28;20034;-65
2023/07/21 01:37:47;;;;;;;6.05;3.17;;;;;;;;;;4969724;28;20330;-66
2023/07/21 01:40:13;;;;;;;7.20;3.47;;;;;;;;;;4970198;28;20026;-65
2023/07/21 01:42:39;;;;;;;6.95;3.50;;;;;;;;;;4970181;28;20101;-66
2023/07/21 01:45:05;;;;;;;7.38;3.40;;;;;;;;;;4987420;28;20414;-67
2023/07/21 01:47:32;;;;;;;6.10;3.65;;;;;;;;;;4987013;28;20076;-66
2023/07/21 01:49:58;;;;;;;6.45;3.25;;;;;;;;;;4985641;28;20045;-66
2023/07/21 01:52:23;;;;;;;6.43;3.25;;;;;;;;;;4981951;28;20172;-66
2023/07/21 01:54:51;;;;;;;5.53;3.60;;;;;;;;;;4989235;28;20037;-66
2023/07/21 01:57:17;;;;;;;6.97;3.80;;;;;;;;;;4988784;28;20100;-66
2023/07/21 01:59:43;;;;;;;6.28;3.67;;;;;;;;;;4989283;28;20038;-65
2023/07/21 02:02:09;;;;;;;6.97;3.70;;;;;;;;;;4992727;28;20117;-66
2023/07/21 02:04:35;;;;;;;5.68;3.63;;;;;;;;;;4987028;28;20399;-66
2023/07/21 02:07:00;;;;;;;6.63;3.53;;;;;;;;;;4987132;28;20041;-66
2023/07/21 02:09:25;;;;;;;5.67;3.60;;;;;;;;;;4972558;28;20034;-66
2023/07/21 02:11:50;;;;;;;5.72;3.50;;;;;;;;;;4993872;28;20548;-66
2023/07/21 02:14:16;;;;;;;6.53;3.50;;;;;;;;;;4985271;28;20044;-65
2023/07/21 02:16:41;;;;;;;5.05;3.30;;;;;;;;;;4987237;28;20305;-66
2023/07/21 02:19:06;;;;;;;6.40;3.80;;;;;;;;;;4987525;28;20034;-66
2023/07/21 02:21:32;;;;;;;6.80;3.67;;;;;;;;;;4986435;28;20038;-65
2023/07/21 02:23:57;;;;;;;4.68;3.40;;;;;;;;;;4968993;28;20036;-66
2023/07/21 02:26:23;;;;;;;7.33;3.67;;;;;;;;;;4985067;28;20034;-65
2023/07/21 02:28:48;;;;;;;5.07;3.47;;;;;;;;;;4970160;28;20327;-66
2023/07/21 02:31:13;;;;;;;6.87;3.70;;;;;;;;;;4987072;28;20057;-65
2023/07/21 02:33:38;;;;;;;6.50;3.47;;;;;;;;;;4988306;28;20361;-66
2023/07/21 02:36:04;;;;;;;6.35;3.22;;;;;;;;;;5004341;28;20049;-66
2023/07/21 02:38:29;;;;;;;5.35;3.80;;;;;;;;;;4987325;28;20109;-66
2023/07/21 02:40:55;;;;;;;9.07;3.67;;;;;;;;;;4969201;28;20106;-66
2023/07/21 02:43:22;;;;;;;6.57;3.50;;;;;;;;;;4969390;28;20114;-66
2023/07/21 02:45:51;;;;;;;5.72;3.40;;;;;;;;;;4985499;28;20038;-66
2023/07/21 02:48:17;;;;;;;7.38;3.58;;;;;;;;;;4986705;28;20039;-66
2023/07/21 02:50:42;;;;;;;5.80;3.55;;;;;;;;;;4969056;28;20538;-66
2023/07/21 02:53:08;;;;;;;6.00;3.47;;;;;;;;;;4985966;28;20042;-66
2023/07/21 02:55:33;;;;;;;5.33;3.30;;;;;;;;;;4985238;28;20375;-66
2023/07/21 02:57:58;;;;;;;5.40;3.05;;;;;;;;;;4987053;28;20062;-66
2023/07/21 03:00:23;;;;;;;7.03;3.37;;;;;;;;;;4986394;28;20469;-67
2023/07/21 03:02:49;;;;;;;6.10;3.57;;;;;;;;;;4984536;28;20471;-66
2023/07/21 03:05:14;;;;;;;6.53;3.70;;;;;;;;;;4985253;28;20278;-66
2023/07/21 03:07:39;;;;;;;4.68;3.65;;;;;;;;;;4969835;28;20053;-66
2023/07/21 03:10:05;;;;;;;5.90;3.70;;;;;;;;;;4999407;28;20065;-66
2023/07/21 03:12:31;;;;;;;6.10;3.65;;;;;;;;;;4972504;28;20050;-66
2023/07/21 03:14:56;;;;;;;4.53;3.50;;;;;;;;;;5007453;28;20504;-67
2023/07/21 03:17:21;;;;;;;4.33;3.30;;;;;;;;;;5002714;28;20518;-66
2023/07/21 03:19:48;;;;;;;7.77;4.00;;;;;;;;;;4989766;28;20478;-66
2023/07/21 03:22:16;;;;;;;6.45;3.72;;;;;;;;;;4989972;28;20275;-66
2023/07/21 03:24:41;;;;;;;6.82;3.67;;;;;;;;;;4989735;28;20049;-66
2023/07/21 03:27:06;;;;;;;5.00;3.70;;;;;;;;;;4972777;28;20499;-66
2023/07/21 03:29:31;;;;;;;5.70;3.87;;;;;;;;;;4989736;28;20049;-66
2023/07/21 03:31:57;;;;;;;6.43;3.97;;;;;;;;;;4988129;28;20061;-66
2023/07/21 03:34:22;;;;;;;8.03;3.97;;;;;;;;;;4990073;28;20042;-67
2023/07/21 03:36:50;;;;;;;5.60;3.73;;;;;;;;;;4989592;28;20289;-67
2023/07/21 03:39:15;;;;;;;6.80;4.03;;;;;;;;;;4990005;28;20293;-66
2023/07/21 03:41:40;;;;;;;8.00;4.30;;;;;;;;;;4989695;28;20030;-66
2023/07/21 03:44:09;;;;;;;6.47;4.10;;;;;;;;;;5002031;28;20287;-67
2023/07/21 03:46:35;;;;;;;7.30;4.47;;;;;;;;;;5002206;28;20034;-66
2023/07/21 03:49:00;;;;;;;6.50;3.70;;;;;;;;;;5009038;28;20034;-66
2023/07/21 03:51:26;;;;;;;6.90;4.40;;;;;;;;;;5008409;28;20049;-66
2023/07/21 03:53:51;;;;;;;5.50;4.15;;;;;;;;;;5004863;28;20034;-67
2023/07/21 03:56:18;;;;;;;8.10;4.47;;;;;;;;;;4989533;28;20038;-66
2023/07/21 03:58:44;;;;;;;7.05;4.15;;;;;;;;;;4989274;28;20850;-67
2023/07/21 04:01:09;;;;;;;8.57;4.03;;;;;;;;;;4971051;28;20121;-66
2023/07/21 04:03:34;;;;;;;6.13;4.27;;;;;;;;;;4988355;28;20772;-66
2023/07/21 04:06:04;;;;;;;5.35;3.88;;;;;;;;;;4971103;28;20565;-66
2023/07/21 04:08:29;;;;;;;6.13;3.92;;;;;;;;;;4971916;28;20085;-66
2023/07/21 04:10:54;;;;;;;7.93;4.30;;;;;;;;;;4987900;28;20074;-67
2023/07/21 04:13:20;;;;;;;7.40;4.23;;;;;;;;;;4990187;28;20058;-66
2023/07/21 04:15:48;;;;;;;5.43;4.00;;;;;;;;;;4986931;28;20340;-66
2023/07/21 04:18:14;;;;;;;5.65;4.18;;;;;;;;;;4989170;28;20751;-66
2023/07/21 04:20:39;;;;;;;8.33;4.87;;;;;;;;;;4987421;28;20173;-66
2023/07/21 04:23:04;;;;;;;7.93;4.07;;;;;;;;;;4997129;28;20042;-66
2023/07/21 04:25:32;;;;;;;6.33;4.50;;;;;;;;;;4989719;28;20121;-66
2023/07/21 04:27:57;;;;;;;6.38;4.45;;;;;;;;;;4972276;28;20277;-66
2023/07/21 04:30:22;;;;;;;8.50;4.20;;;;;;;;;;4988997;28;20037;-66
2023/07/21 04:32:47;;;;;;;6.17;4.27;;;;;;;;;;4998064;28;20038;-66
2023/07/21 04:35:16;;;;;;;7.47;4.18;;;;;;;;;;4994658;28;20292;-66
2023/07/21 04:37:41;;;;;;;8.80;4.80;;;;;;;;;;4988552;28;20116;-67
2023/07/21 04:40:06;;;;;;;10.23;4.57;;;;;;;;;;4977949;28;20491;-66
2023/07/21 04:42:35;;;;;;;8.43;4.82;;;;;;;;;;4975474;28;20383;-68
2023/07/21 04:45:00;;;;;;;6.45;4.53;;;;;;;;;;4998504;28;20450;-68
2023/07/21 04:47:25;;;;;;;9.57;5.30;;;;;;;;;;4987388;28;20045;-67
2023/07/21 04:49:52;;;;;;;6.30;5.00;;;;;;;;;;4991194;28;20066;-68
2023/07/21 04:52:17;;;;;;;9.63;5.82;;;;;;;;;;4985372;28;20302;-67
2023/07/21 04:54:44;;;;;;;11.83;7.10;;;;;;;;;;5001419;28;20038;-66
2023/07/21 04:57:10;;;;;;;10.00;6.05;;;;;;;;;;4978691;28;20286;-67
2023/07/21 04:59:35;;;;;;;10.40;6.05;;;;;;;;;;4970205;28;20045;-67
2023/07/21 05:02:01;;;;;;;8.23;5.95;;;;;;;;;;4970933;28;20042;-67
2023/07/21 05:04:26;;;;;;;10.00;6.10;;;;;;;;;;5006140;28;20037;-67
2023/07/21 05:06:51;;;;;;;9.50;7.28;;;;;;;;;;5007581;28;20060;-67
2023/07/21 05:09:17;;;;;;;12.20;6.22;;;;;;;;;;4990040;28;20425;-68
2023/07/21 05:11:42;;;;;;;9.48;5.90;;;;;;;;;;4975388;28;20049;-66
2023/07/21 05:14:08;;;;;;;9.90;5.97;;;;;;;;;;4966815;28;20371;-66
2023/07/21 05:16:37;;;;;;;10.82;6.68;;;;;;;;;;4989955;28;20481;-65
2023/07/21 05:19:02;;;;;;;9.27;5.63;;;;;;;;;;4987576;28;20105;-65
2023/07/21 05:21:27;;;;;;;8.95;5.65;;;;;;;;;;4987424;28;20026;-66
2023/07/21 05:23:53;;;;;;;8.63;5.87;;;;;;;;;;4988720;28;20026;-66
2023/07/21 05:26:19;;;;;;;9.63;5.90;;;;;;;;;;4987850;28;20281;-66
2023/07/21 05:28:46;;;;;;;9.00;6.15;;;;;;;;;;5008409;23;20050;-67
2023/07/21 05:31:11;;;;;;;10.18;6.15;;;;;;;;;;4987455;28;20484;-68
2023/07/21 05:33:37;;;;;;;8.87;5.67;;;;;;;;;;4996399;28;20026;-70
2023/07/21 05:36:05;;;;;;;14.82;6.55;;;;;;;;;;4969967;28;20715;-68
2023/07/21 05:38:32;;;;;;;11.52;6.25;;;;;;;;;;4983125;28;20069;-69
2023/07/21 05:40:57;;;;;;;8.43;6.30;;;;;;;;;;4966955;28;20024;-67
2023/07/21 05:43:22;;;;;;;13.43;6.57;;;;;;;;;;4978937;28;20018;-68
2023/07/21 05:45:48;;;;;;;9.10;6.23;;;;;;;;;;4984582;28;20099;-67
2023/07/21 05:48:13;;;;;;;10.27;7.07;;;;;;;;;;5008049;23;20875;-66
2023/07/21 05:50:38;;;;;;;11.30;6.87;;;;;;;;;;4986489;28;20029;-67
2023/07/21 05:53:04;;;;;;;11.52;6.90;;;;;;;;;;4986935;28;20442;-69
2023/07/21 05:55:29;;;;;;;8.15;5.55;;;;;;;;;;4989153;28;20029;-68
2023/07/21 05:57:54;;;;;;;9.93;6.15;;;;;;;;;;4972595;28;20041;-64
2023/07/21 06:00:20;;;;;;;9.77;5.53;;;;;;;;;;4997516;28;20041;-66
2023/07/21 06:02:45;;;;;;;9.90;5.70;;;;;;;;;;4988948;28;20912;-66
2023/07/21 06:05:10;;;;;;;10.10;5.90;;;;;;;;;;4984530;28;21041;-67
2023/07/21 06:07:36;;;;;;;9.30;6.00;;;;;;;;;;4986402;28;20348;-68
2023/07/21 06:10:02;;;;;;;9.70;5.30;;;;;;;;;;4979085;28;20358;-66
2023/07/21 06:12:28;;;;;;;11.93;5.65;;;;;;;;;;4970906;28;20404;-68
2023/07/21 06:14:53;;;;;;;9.60;5.53;;;;;;;;;;4970928;28;20109;-69
2023/07/21 06:17:19;;;;;;;9.95;5.75;;;;;;;;;;4969371;28;20042;-72
2023/07/21 06:19:47;;;;;;;7.82;5.15;;;;;;;;;;4960190;28;20022;-69
2023/07/21 06:22:13;;;;;;;8.88;4.95;;;;;;;;;;4971115;28;20135;-68
2023/07/21 06:24:38;;;;;;;8.55;5.30;;;;;;;;;;4968263;28;20438;-67
2023/07/21 06:27:03;;;;;;;8.45;5.10;;;;;;;;;;4970413;28;20060;-67
2023/07/21 06:29:29;;;;;;;9.45;5.55;;;;;;;;;;4969671;28;20114;-69
2023/07/21 06:31:54;;;;;;;8.93;5.23;;;;;;;;;;4971020;28;20097;-66
2023/07/21 06:34:22;;;;;;;10.65;5.55;;;;;;;;;;4986604;28;20100;-64
2023/07/21 06:36:47;;;;;;;8.93;4.70;;;;;;;;;;4969576;28;20045;-68
2023/07/21 06:39:13;;;;;;;9.10;5.07;;;;;;;;;;4971241;28;20034;-68
2023/07/21 06:41:38;;;;;;;9.00;5.13;;;;;;;;;;4970493;28;20392;-68
2023/07/21 06:44:03;;;;;;;6.60;4.67;;;;;;;;;;4971165;28;20347;-69
2023/07/21 06:46:29;;;;;;;6.07;4.20;;;;;;;;;;4975610;28;20037;-67
2023/07/21 06:48:54;;;;;;;7.20;4.43;;;;;;;;;;4975358;28;20701;-67
2023/07/21 06:51:19;;;;;;;8.07;5.10;;;;;;;;;;4974600;28;20058;-71
2023/07/21 06:53:45;;;;;;;8.67;4.70;;;;;;;;;;4974127;28;20622;-63
2023/07/21 06:56:13;;;;;;;8.93;5.30;;;;;;;;;;4974126;28;20411;-67
2023/07/21 06:58:38;;;;;;;13.52;5.57;;;;;;;;;;4975153;28;20509;-69
2023/07/21 07:01:03;;;;;;;9.07;4.67;;;;;;;;;;4975127;28;20038;-73
2023/07/21 07:03:29;;;;;;;10.77;5.40;;;;;;;;;;4973097;28;21376;-70
2023/07/21 07:05:55;;;;;;;9.32;5.30;;;;;;;;;;4973616;28;20114;-66
2023/07/21 07:08:20;;;;;;;7.25;5.05;;;;;;;;;;4973618;28;20038;-66
2023/07/21 07:10:47;;;;;;;11.30;5.97;;;;;;;;;;4975540;28;20098;-68
2023/07/21 07:13:12;;;;;;;10.40;5.70;;;;;;;;;;4975005;28;20651;-68
2023/07/21 07:15:38;;;;;;;12.35;6.30;;;;;;;;;;4972034;28;20158;-65
2023/07/21 07:18:04;;;;;;;8.90;5.22;;;;;;;;;;4972743;28;20058;-67
2023/07/21 07:20:29;;;;;;;10.98;6.25;;;;;;;;;;4971942;28;20035;-68
2023/07/21 07:22:56;;;;;;;12.30;5.68;;;;;;;;;;4972753;28;20117;-67
2023/07/21 07:25:24;;;;;;;10.88;5.72;;;;;;;;;;4974749;28;20038;-68
2023/07/21 07:27:50;;;;;;;11.95;5.75;;;;;;;;;;4973462;28;20494;-67
2023/07/21 07:30:16;;;;;;;9.25;6.13;;;;;;;;;;4973514;28;20027;-71
2023/07/21 07:32:41;;;;;;;8.05;5.47;;;;;;;;;;4968912;28;20101;-67
2023/07/21 07:35:07;;;;;;;8.15;5.30;;;;;;;;;;4974146;28;20034;-67
2023/07/21 07:37:32;;;;;;;10.50;6.22;;;;;;;;;;4974609;28;20399;-64
2023/07/21 07:39:57;;;;;;;7.97;4.93;;;;;;;;;;4973435;28;20030;-67
2023/07/21 07:42:23;;;;;;;9.67;4.63;;;;;;;;;;4973521;28;20298;-67
2023/07/21 07:44:49;;;;;;;7.93;5.38;;;;;;;;;;4972181;28;20565;-71
2023/07/21 07:47:14;;;;;;;8.70;4.90;;;;;;;;;;4972438;28;20072;-69
2023/07/21 07:49:40;;;;;;;8.90;4.87;;;;;;;;;;4972357;28;20086;-71
2023/07/21 07:52:06;;;;;;;8.80;4.18;;;;;;;;;;4973374;28;20665;-68
2023/07/21 07:54:34;;;;;;;6.85;4.68;;;;;;;;;;4973519;28;20571;-68
2023/07/21 07:56:59;;;;;;;10.63;5.00;;;;;;;;;;4974028;28;20050;-65
2023/07/21 07:59:24;;;;;;;7.17;4.43;;;;;;;;;;4972875;28;20041;-67
2023/07/21 08:01:49;;;;;;;7.50;4.20;;;;;;;;;;4971877;28;20282;-67
2023/07/21 08:04:15;;;;;;;7.43;4.43;;;;;;;;;;4971309;28;20756;-68
2023/07/21 08:06:40;;;;;;;6.70;4.47;;;;;;;;;;4987639;28;20300;-66
2023/07/21 08:09:06;;;;;;;8.82;4.60;;;;;;;;;;4970998;28;20882;-67
2023/07/21 08:11:31;;;;;;;8.00;4.53;;;;;;;;;;4974782;28;20857;-68
2023/07/21 08:13:56;;;;;;;6.27;4.00;;;;;;;;;;4967507;28;20305;-67
2023/07/21 08:16:21;;;;;;;8.30;4.53;;;;;;;;;;4972170;28;20285;-64
2023/07/21 08:18:47;;;;;;;8.00;5.10;;;;;;;;;;4972549;28;20823;-65
2023/07/21 08:21:18;;;;;;;7.13;4.63;;;;;;;;;;4971618;28;20286;-68
2023/07/21 08:23:44;;;;;;;9.18;5.22;;;;;;;;;;4971141;28;20046;-67
2023/07/21 08:26:09;;;;;;;7.25;4.63;;;;;;;;;;4972373;28;20037;-68
2023/07/21 08:28:34;;;;;;;8.37;5.10;;;;;;;;;;4973335;28;20029;-70
2023/07/21 08:30:59;;;;;;;6.93;4.45;;;;;;;;;;4972815;28;20049;-71
2023/07/21 08:33:25;;;;;;;10.00;4.07;;;;;;;;;;4971003;28;20058;-70
2023/07/21 08:35:50;;;;;;;8.75;4.43;;;;;;;;;;4970531;28;20305;-69
2023/07/21 08:38:16;;;;;;;7.05;4.47;;;;;;;;;;4971828;28;20279;-71
2023/07/21 08:40:41;;;;;;;8.68;4.53;;;;;;;;;;4971275;28;20075;-69
2023/07/21 08:43:06;;;;;;;7.43;4.43;;;;;;;;;;4971325;28;20573;-69
2023/07/21 08:45:33;;;;;;;8.40;5.03;;;;;;;;;;4970022;28;20423;-68
2023/07/21 08:48:01;;;;;;;9.52;4.50;;;;;;;;;;4971537;28;20038;-70
2023/07/21 08:50:26;;;;;;;6.63;4.43;;;;;;;;;;4986180;28;20075;-70
2023/07/21 08:52:51;;;;;;;9.00;4.50;;;;;;;;;;4985838;28;20054;-71
2023/07/21 08:55:16;;;;;;;9.97;4.50;;;;;;;;;;4972687;28;20290;-69
2023/07/21 08:57:42;;;;;;;7.03;4.50;;;;;;;;;;4971631;28;20308;-66
2023/07/21 09:00:10;;;;;;;6.33;4.60;;;;;;;;;;4972159;28;20297;-71
2023/07/21 09:02:38;;;;;;;10.05;4.55;;;;;;;;;;4971407;28;20605;-66
2023/07/21 09:05:04;;;;;;;7.47;4.03;;;;;;;;;;4970124;28;20045;-72
2023/07/21 09:07:30;;;;;;;7.60;4.22;;;;;;;;;;4974061;28;20038;-69
2023/07/21 09:09:55;;;;;;;9.55;4.70;;;;;;;;;;4972245;28;20502;-71
2023/07/21 09:12:20;;;;;;;7.90;4.37;;;;;;;;;;4973557;28;20053;-71
2023/07/21 09:14:47;;;;;;;11.43;4.77;;;;;;;;;;4970400;28;20031;-68
2023/07/21 09:17:12;;;;;;;11.63;4.70;;;;;;;;;;4967658;28;20296;-68
2023/07/21 09:19:38;;;;;;;7.63;4.20;;;;;;;;;;4964008;28;20034;-69
2023/07/21 09:22:03;;;;;;;7.63;4.22;;;;;;;;;;4970687;28;20387;-70
2023/07/21 09:24:28;;;;;;;8.18;4.35;;;;;;;;;;4970397;28;20410;-72
2023/07/21 09:27:10;;;;;;;5.90;3.60;;;;;;;;;;4987176;28;20135;-68
2023/07/21 09:29:36;;;;;;;7.60;4.10;;;;;;;;;;4970440;28;20399;-68
2023/07/21 09:32:01;;;;;;;9.83;4.17;;;;;;;;;;4969765;28;20053;-69
2023/07/21 09:34:26;;;;;;;9.55;4.40;;;;;;;;;;4970707;28;20589;-69
2023/07/21 09:36:51;;;;;;;8.07;3.97;;;;;;;;;;4971916;28;20512;-67
2023/07/21 09:39:17;;;;;;;6.20;3.93;;;;;;;;;;4969276;28;20144;-65
2023/07/21 09:41:42;;;;;;;8.38;4.40;;;;;;;;;;4969921;28;20298;-68
2023/07/21 09:44:08;;;;;;;8.57;3.97;;;;;;;;;;4970059;28;20375;-68
2023/07/21 09:46:33;;;;;;;6.90;3.70;;;;;;;;;;4970771;28;20419;-69
2023/07/21 09:48:58;;;;;;;6.72;4.22;;;;;;;;;;4969711;28;20300;-67
2023/07/21 09:51:26;;;;;;;6.35;4.10;;;;;;;;;;4956088;28;20050;-69
2023/07/21 09:53:52;;;;;;;7.18;4.05;;;;;;;;;;4968634;28;20038;-68
2023/07/21 09:56:17;;;;;;;6.20;4.07;;;;;;;;;;4969848;28;20030;-68
2023/07/21 09:58:50;;;;;;;7.60;4.30;;;;;;;;;;4970823;28;20340;-65
2023/07/21 10:01:15;;;;;;;7.70;3.78;;;;;;;;;;4985969;28;20058;-68
2023/07/21 10:03:40;;;;;;;7.40;4.30;;;;;;;;;;4969649;28;20174;-69
2023/07/21 10:06:07;;;;;;;6.07;4.00;;;;;;;;;;4986238;28;22166;-66
2023/07/21 10:08:33;;;;;;;7.13;4.10;;;;;;;;;;4985026;28;20064;-66
2023/07/21 10:10:59;;;;;;;6.93;3.65;;;;;;;;;;4953615;28;20126;-68
2023/07/21 10:13:25;;;;;;;7.82;3.92;;;;;;;;;;4970587;28;20129;-68
2023/07/21 10:15:50;;;;;;;7.13;4.00;;;;;;;;;;4971243;28;20053;-70
2023/07/21 10:18:16;;;;;;;6.40;3.90;;;;;;;;;;4970737;28;20034;-65
2023/07/21 10:20:42;;;;;;;7.73;4.03;;;;;;;;;;4986923;28;20876;-66
2023/07/21 10:23:07;;;;;;;7.55;3.65;;;;;;;;;;4969860;28;20049;-65
2023/07/21 10:25:51;;;;;;;8.18;3.92;;;;;;;;;;4985479;28;20018;-64
2023/07/21 10:28:43;;;;;;;5.90;3.80;;;;;;;;;;4971236;28;20049;-67
2023/07/21 10:31:24;;;;;;;6.07;3.75;;;;;;;;;;4968882;28;20160;-70
2023/07/21 10:34:04;;;;;;;5.78;3.60;;;;;;;;;;4983808;28;20034;-71
2023/07/21 10:36:48;;;;;;;5.93;4.03;;;;;;;;;;4985618;28;20258;-69
2023/07/21 10:39:19;;;;;;;5.30;3.72;;;;;;;;;;4974572;28;20030;-69
2023/07/21 10:41:44;;;;;;;7.88;4.07;;;;;;;;;;4978377;28;20125;-67
2023/07/21 10:44:10;;;;;;;7.38;4.05;;;;;;;;;;4978089;28;20304;-67
2023/07/21 10:46:36;;;;;;;6.38;3.53;;;;;;;;;;4976579;28;20038;-66
2023/07/21 10:49:01;;;;;;;6.20;3.97;;;;;;;;;;4984679;28;20072;-69
2023/07/21 10:51:26;;;;;;;5.30;3.40;;;;;;;;;;4984733;28;20058;-67
2023/07/21 10:53:51;;;;;;;6.23;3.83;;;;;;;;;;4976669;28;20294;-68
2023/07/21 10:56:17;;;;;;;5.97;4.07;;;;;;;;;;4977128;28;20035;-65
2023/07/21 10:58:42;;;;;;;5.90;3.43;;;;;;;;;;4979112;28;20350;-65
2023/07/21 11:01:07;;;;;;;6.50;3.85;;;;;;;;;;4991969;28;20297;-67
2023/07/21 11:03:32;;;;;;;4.77;3.30;;;;;;;;;;5000861;28;20403;-64
2023/07/21 11:05:58;;;;;;;4.80;3.20;;;;;;;;;;4978633;28;20406;-71
2023/07/21 11:08:26;;;;;;;6.22;3.22;;;;;;;;;;4977080;28;20368;-66
2023/07/21 11:10:51;;;;;;;6.70;3.55;;;;;;;;;;4979454;28;20053;-72
2023/07/21 11:13:17;;;;;;;7.20;3.67;;;;;;;;;;4972699;28;20053;-71
2023/07/21 11:15:48;;;;;;;4.97;3.40;;;;;;;;;;4988627;28;20104;-64
2023/07/21 11:18:13;;;;;;;5.03;3.20;;;;;;;;;;4991299;28;20316;-66
2023/07/21 11:20:38;;;;;;;5.13;3.28;;;;;;;;;;4967451;28;20023;-67
2023/07/21 11:23:03;;;;;;;6.75;3.55;;;;;;;;;;4954705;28;20113;-68
2023/07/21 11:25:29;;;;;;;4.90;3.53;;;;;;;;;;4978443;28;20042;-65
2023/07/21 11:27:54;;;;;;;4.40;3.20;;;;;;;;;;4978192;28;20614;-64
2023/07/21 11:30:19;;;;;;;4.53;3.35;;;;;;;;;;4986880;28;20371;-68
2023/07/21 11:32:45;;;;;;;5.45;3.50;;;;;;;;;;4975639;28;20065;-70
2023/07/21 11:35:10;;;;;;;5.75;3.50;;;;;;;;;;4993901;28;20037;-70
2023/07/21 11:37:36;;;;;;;4.13;2.90;;;;;;;;;;4981447;28;20537;-70
2023/07/21 11:40:03;;;;;;;5.82;3.10;;;;;;;;;;4975082;28;20333;-68
2023/07/21 11:42:40;;;;;;;4.57;3.10;;;;;;;;;;4974274;28;20081;-69
2023/07/21 11:45:28;;;;;;;5.15;3.28;;;;;;;;;;4976702;28;20140;-69
2023/07/21 11:47:53;;;;;;;4.32;3.00;;;;;;;;;;4974778;28;20070;-65
2023/07/21 11:50:18;;;;;;;5.40;3.47;;;;;;;;;;4975079;28;20042;-69
2023/07/21 11:52:43;;;;;;;4.73;3.20;;;;;;;;;;4973952;28;20039;-69
2023/07/21 11:55:09;;;;;;;4.73;3.00;;;;;;;;;;4990029;28;20033;-71
2023/07/21 11:57:34;;;;;;;5.13;3.15;;;;;;;;;;4973216;28;20049;-70
2023/07/21 11:59:59;;;;;;;5.50;2.83;;;;;;;;;;4974397;28;20049;-68
2023/07/21 12:02:25;;;;;;;4.50;3.00;;;;;;;;;;4971963;28;20495;-71
2023/07/21 12:04:50;;;;;;;4.93;2.70;;;;;;;;;;4975106;28;20376;-69
2023/07/21 12:07:15;;;;;;;5.17;3.20;;;;;;;;;;4973486;28;20959;-68
2023/07/21 12:09:40;;;;;;;4.43;2.63;;;;;;;;;;4974868;28;20522;-69
2023/07/21 12:12:07;;;;;;;3.53;2.53;;;;;;;;;;4973958;28;20117;-65
2023/07/21 12:14:32;;;;;;;4.55;2.88;;;;;;;;;;4973145;28;20491;-66
2023/07/21 12:16:58;;;;;;;4.40;2.87;;;;;;;;;;4973220;28;20040;-68
2023/07/21 12:19:24;;;;;;;4.47;2.77;;;;;;;;;;4973707;28;20746;-66
2023/07/21 12:21:49;;;;;;;5.38;2.97;;;;;;;;;;4974208;28;20330;-69
2023/07/21 12:24:14;;;;;;;3.47;2.13;;;;;;;;;;4974311;28;20062;-70
2023/07/21 12:26:40;;;;;;;4.50;3.03;;;;;;;;;;4972734;28;20039;-68
2023/07/21 12:29:05;;;;;;;4.35;2.53;;;;;;;;;;4973465;28;20380;-68
2023/07/21 12:31:31;;;;;;;4.63;3.20;;;;;;;;;;4989381;28;20046;-68
2023/07/21 12:33:56;;;;;;;4.28;2.78;;;;;;;;;;4973752;28;20034;-69
2023/07/21 12:36:21;;;;;;;4.27;2.70;;;;;;;;;;4989428;28;20140;-66
2023/07/21 12:38:47;;;;;;;5.23;2.73;;;;;;;;;;4973015;28;20588;-69
2023/07/21 12:41:13;;;;;;;4.32;2.70;;;;;;;;;;4983739;28;20294;-69
2023/07/21 12:43:38;;;;;;;5.10;3.08;;;;;;;;;;4986718;28;20035;-70
2023/07/21 12:46:03;;;;;;;4.57;2.50;;;;;;;;;;4987219;28;20430;-68
2023/07/21 12:48:30;;;;;;;3.63;2.60;;;;;;;;;;4985164;28;21555;-66
2023/07/21 12:50:56;;;;;;;4.65;2.70;;;;;;;;;;4974302;28;20085;-68
2023/07/21 12:53:21;;;;;;;4.07;2.80;;;;;;;;;;4982039;28;20084;-67
2023/07/21 12:55:50;;;;;;;5.00;2.40;;;;;;;;;;4983961;28;20038;-67
2023/07/21 12:58:15;;;;;;;3.55;2.80;;;;;;;;;;4978717;28;20046;-71
2023/07/21 13:00:40;;;;;;;5.50;2.65;;;;;;;;;;4977687;28;20018;-69
2023/07/21 13:03:05;;;;;;;4.13;2.60;;;;;;;;;;4984889;28;20025;-69
2023/07/21 13:05:31;;;;;;;3.70;2.50;;;;;;;;;;4985251;28;20029;-70
2023/07/21 13:07:56;;;;;;;3.55;2.50;;;;;;;;;;4990675;28;20035;-68
2023/07/21 13:10:22;;;;;;;3.70;2.63;;;;;;;;;;4961589;28;20434;-67
2023/07/21 13:12:47;;;;;;;3.70;2.40;;;;;;;;;;4978891;28;20030;-69
2023/07/21 13:15:12;;;;;;;5.00;2.77;;;;;;;;;;4976343;28;20557;-67
2023/07/21 13:17:37;;;;;;;3.67;2.63;;;;;;;;;;4975778;28;20289;-68
2023/07/21 13:20:04;;;;;;;3.43;2.60;;;;;;;;;;4979935;28;20022;-67
2023/07/21 13:22:29;;;;;;;3.88;2.60;;;;;;;;;;4979127;28;20019;-66
2023/07/21 13:24:54;;;;;;;3.50;2.33;;;;;;;;;;4976268;28;20014;-65
2023/07/21 13:27:19;;;;;;;3.87;2.50;;;;;;;;;;4969784;28;20029;-68
2023/07/21 13:29:46;;;;;;;3.60;2.60;;;;;;;;;;4979124;28;20274;-66
2023/07/21 13:32:12;;;;;;;4.30;2.80;;;;;;;;;;4975739;28;20034;-66
2023/07/21 13:34:37;;;;;;;3.83;2.50;;;;;;;;;;4977086;28;20493;-69
2023/07/21 13:37:02;;;;;;;3.83;2.97;;;;;;;;;;4978715;28;20658;-67
2023/07/21 13:39:28;;;;;;;4.40;2.58;;;;;;;;;;4975587;28;20026;-67
2023/07/21 13:41:53;;;;;;;3.53;2.50;;;;;;;;;;4971452;28;20661;-69
2023/07/21 13:44:18;;;;;;;4.25;2.67;;;;;;;;;;4972561;28;20010;-67
2023/07/21 13:46:44;;;;;;;4.23;2.87;;;;;;;;;;4972879;28;20049;-67
2023/07/21 13:49:09;;;;;;;3.92;2.40;;;;;;;;;;4970672;28;20283;-63
2023/07/21 13:51:34;;;;;;;3.50;2.50;;;;;;;;;;4971295;28;20065;-67
2023/07/21 13:54:00;;;;;;;3.67;2.38;;;;;;;;;;4969148;28;20293;-70
2023/07/21 13:56:26;;;;;;;4.27;2.57;;;;;;;;;;4983591;28;20049;-69
2023/07/21 13:58:52;;;;;;;4.05;2.88;;;;;;;;;;4969546;28;20352;-66
2023/07/21 14:01:17;;;;;;;4.35;2.70;;;;;;;;;;4983913;28;20403;-65
2023/07/21 14:03:45;;;;;;;4.15;2.67;;;;;;;;;;4971724;28;20038;-64
2023/07/21 14:06:10;;;;;;;3.35;2.45;;;;;;;;;;4970459;28;20045;-67
2023/07/21 14:08:35;;;;;;;4.37;2.57;;;;;;;;;;4984217;28;20026;-66
2023/07/21 14:11:00;;;;;;;4.03;2.20;;;;;;;;;;4969040;28;20411;-67
2023/07/21 14:13:26;;;;;;;3.50;2.50;;;;;;;;;;4969212;28;20022;-67
2023/07/21 14:15:52;;;;;;;4.30;2.30;;;;;;;;;;4969512;28;20049;-69
2023/07/21 14:18:17;;;;;;;3.03;2.10;;;;;;;;;;4970284;28;20047;-70
2023/07/21 14:20:43;;;;;;;4.53;2.83;;;;;;;;;;4967047;28;20702;-69
2023/07/21 14:23:08;;;;;;;3.57;2.50;;;;;;;;;;4964904;28;20042;-66
2023/07/21 14:25:34;;;;;;;3.27;2.63;;;;;;;;;;4968934;28;20602;-67
2023/07/21 14:27:59;;;;;;;4.35;2.30;;;;;;;;;;4969053;28;22825;-67
2023/07/21 14:30:24;;;;;;;3.57;2.30;;;;;;;;;;4969698;28;21900;-70
2023/07/21 14:32:49;;;;;;;3.55;2.65;;;;;;;;;;4983028;28;20045;-69